Time;durP1;ratioP1;P1;durP2;ratioP2;P2;SDS_P1;SDS_P2;PMS_P1;PMS_P2;Temp;Humidity;BMP_temperature;BMP_pressure;BME280_temperature;BME280_humidity;BME280_pressure;Samples;Min_cycle;Max_cycle;Signal;HPM_P1;HPM_P2
2023/12/14 00:01:25;;;;;;;;;55.75;44.25;;;;;9.41;83.35;100505.06;146609;579;47012;-66
2023/12/14 00:04:33;;;;;;;;;;;;;;;;;;;;;
2023/12/14 00:07:41;;;;;;;;;55.75;45.75;;;;;9.44;83.42;100502.63;146609;636;46016;-66
2023/12/14 00:10:43;;;;;;;;;53.75;42.75;;;;;9.44;83.55;100502.63;146609;569;46020;-65
2023/12/14 00:13:40;;;;;;;;;56.00;46.50;;;;;9.44;83.40;100510.38;146612;577;46012;-66
2023/12/14 00:16:35;;;;;;;;;58.00;47.25;;;;;9.43;83.09;100513.75;146612;600;47010;-67
2023/12/14 00:19:32;;;;;;;;;48.75;38.75;;;;;9.42;83.59;100517.16;146606;607;47015;-66
2023/12/14 00:22:48;;;;;;;;;52.50;38.75;;;;;9.40;83.28;100504.13;146615;594;46020;-66
2023/12/14 00:26:12;;;;;;;;;63.00;47.25;;;;;9.41;83.21;100502.47;146605;570;47012;-67
2023/12/14 00:29:14;;;;;;;;;57.00;43.25;;;;;9.39;83.23;100501.47;146612;615;46020;-65
2023/12/14 00:32:19;;;;;;;;;61.25;47.75;;;;;9.39;83.90;100483.38;146607;706;47016;-67
2023/12/14 00:35:16;;;;;;;;;58.50;46.25;;;;;9.34;83.50;100485.69;146606;602;46021;-65
2023/12/14 00:38:14;;;;;;;;;65.50;49.50;;;;;9.26;83.26;100494.78;146610;565;46035;-67
2023/12/14 00:41:20;;;;;;;;;78.00;66.75;;;;;9.19;83.78;100472.88;146607;706;48020;-66
2023/12/14 00:44:14;;;;;;;;;71.75;54.75;;;;;9.21;83.28;100491.94;146610;566;46016;-66
2023/12/14 00:47:20;;;;;;;;;68.75;52.50;;;;;9.21;84.08;100483.28;146613;616;46020;-66
2023/12/14 00:50:31;;;;;;;;;56.25;43.50;;;;;5.35;82.48;99818.16;146611;577;46014;-67
2023/12/14 00:53:29;;;;;;;;;70.25;52.50;;;;;9.18;83.37;100486.59;146605;689;46916;-65
2023/12/14 00:56:29;;;;;;;;;59.50;46.75;;;;;9.19;83.53;100490.06;146608;597;46012;-67
2023/12/14 00:59:34;;;;;;;;;48.25;38.50;;;;;9.18;83.83;100481.41;146609;620;47010;-67
2023/12/14 01:02:32;;;;;;;;;33.50;30.00;;;;;9.12;83.94;100488.84;146607;570;47016;-67
2023/12/14 01:05:31;;;;;;;;;35.75;31.50;;;;;9.06;83.58;100491.13;146605;631;46014;-66
2023/12/14 01:08:28;;;;;;;;;33.00;29.00;;;;;9.03;83.78;100475.44;146609;570;46016;-67
2023/12/14 01:11:32;;;;;;;;;24.75;21.50;;;;;9.04;83.77;100474.66;146611;576;46014;-66
2023/12/14 01:14:39;;;;;;;;;40.50;32.50;;;;;9.04;84.57;100485.00;146611;579;47012;-67
2023/12/14 01:17:37;;;;;;;;;15.50;14.00;;;;;9.05;85.24;100483.28;146611;581;46020;-67
2023/12/14 01:20:42;;;;;;;;;19.00;18.50;;;;;9.00;85.24;100483.94;146605;606;46016;-67
2023/12/14 01:23:57;;;;;;;;;26.50;18.00;;;;;5.04;85.07;99790.69;146612;673;47020;-67
2023/12/14 01:26:48;;;;;;;;;18.75;17.75;;;;;9.01;86.09;100477.06;146610;604;46914;-66
2023/12/14 01:29:43;;;;;;;;;22.75;20.50;;;;;9.00;86.58;100476.19;146612;605;46020;-66
2023/12/14 01:32:59;;;;;;;;;26.75;24.25;;;;;9.02;86.08;100464.19;146610;578;46914;-66
2023/12/14 01:36:01;;;;;;;;;23.75;22.75;;;;;9.09;86.54;100462.81;146607;606;47010;-66
2023/12/14 01:39:21;;;;;;;;;22.50;18.00;;;;;5.65;85.27;99849.00;146612;571;46016;-69
2023/12/14 01:42:27;;;;;;;;;28.50;24.75;;;;;9.20;86.15;100453.94;146611;565;46021;-67
2023/12/14 01:45:29;;;;;;;;;32.50;30.25;;;;;9.27;86.51;100455.16;146606;582;47014;-65
2023/12/14 01:48:25;;;;;;;;;28.75;26.25;;;;;9.36;86.51;100449.56;146610;577;47021;-65
2023/12/14 01:51:27;;;;;;;;;30.25;25.25;;;;;9.39;85.80;100452.31;146610;591;46016;-66
2023/12/14 01:54:32;;;;;;;;;26.00;23.25;;;;;9.41;85.55;100441.25;146608;593;47014;-67
2023/12/14 01:57:35;;;;;;;;;19.75;17.75;;;;;9.37;85.23;100443.56;146609;742;46012;-67
2023/12/14 02:01:06;;;;;;;;;18.50;18.25;;;;;9.35;84.27;100434.88;146613;591;47010;-66
2023/12/14 02:04:10;;;;;;;;;24.50;21.00;;;;;9.38;85.13;100429.84;146607;593;47012;-67
2023/12/14 02:07:04;;;;;;;;;26.50;23.50;;;;;9.41;85.16;100419.66;146608;580;46020;-65
2023/12/14 02:09:58;;;;;;;;;21.50;19.25;;;;;9.39;85.12;100429.03;146626;566;47012;-65
2023/12/14 02:12:55;;;;;;;;;20.00;18.50;;;;;9.38;84.80;100415.19;146635;633;46010;-66
2023/12/14 02:15:50;;;;;;;;;26.75;22.75;;;;;9.37;84.93;100420.28;146632;611;45915;-66
2023/12/14 02:18:52;;;;;;;;;;;;;;;;;;;;;
2023/12/14 02:22:04;;;;;;;;;27.75;22.25;;;;;5.09;84.36;99683.94;146630;580;45913;-65
2023/12/14 02:25:07;;;;;;;;;18.50;18.00;;;;;9.29;85.29;100416.44;146633;617;45015;-66
2023/12/14 02:28:08;;;;;;;;;22.50;20.75;;;;;9.27;86.00;100412.88;146632;620;45016;-66
2023/12/14 02:31:02;;;;;;;;;23.00;19.25;;;;;9.23;85.73;100414.41;146636;575;45010;-65
2023/12/14 02:34:14;;;;;;;;;18.50;17.00;;;;;9.22;85.28;100415.19;146633;566;46012;-66
2023/12/14 02:37:15;;;;;;;;;15.50;15.50;;;;;9.11;85.49;100391.38;146631;586;46014;-66
2023/12/14 02:40:14;;;;;;;;;20.75;18.50;;;;;9.16;84.71;100402.87;146631;637;46016;-66
2023/12/14 02:43:09;;;;;;;;;21.50;17.75;;;;;9.15;84.88;100395.00;146635;589;45020;-66
2023/12/14 02:46:05;;;;;;;;;23.00;20.50;;;;;9.14;85.01;100398.41;146631;589;46016;-66
2023/12/14 02:49:00;;;;;;;;;26.25;21.25;;;;;9.08;84.59;100406.75;146635;565;45018;-66
2023/12/14 02:51:59;;;;;;;;;25.25;20.75;;;;;9.04;84.56;100407.41;146628;736;46016;-67
2023/12/14 02:55:03;;;;;;;;;26.50;23.50;;;;;8.98;84.64;100409.66;146634;581;45010;-67
2023/12/14 02:57:58;;;;;;;;;31.25;26.75;;;;;8.91;85.46;100403.28;146634;627;46014;-67
2023/12/14 03:01:07;;;;;;;;;22.00;19.75;;;;;8.87;85.48;100398.75;146635;602;45020;-68
2023/12/14 03:04:17;;;;;;;;;27.50;23.25;;;;;8.86;84.99;100396.97;146632;587;46014;-67
2023/12/14 03:07:16;;;;;;;;;23.00;19.00;;;;;8.85;86.78;100392.63;146629;600;45010;-68
2023/12/14 03:10:20;;;;;;;;;23.00;20.25;;;;;8.87;85.94;100392.69;146629;636;46016;-67
2023/12/14 03:13:20;;;;;;;;;22.75;19.75;;;;;8.90;86.95;100398.91;146634;589;46052;-68
2023/12/14 03:16:16;;;;;;;;;23.50;18.75;;;;;8.93;87.00;100401.66;146633;686;46012;-67
2023/12/14 03:19:13;;;;;;;;;16.50;15.50;;;;;8.98;87.16;100410.56;146632;579;45021;-67
2023/12/14 03:22:15;;;;;;;;;16.75;15.50;;;;;8.99;87.26;100411.44;146634;573;45016;-68
2023/12/14 03:25:29;;;;;;;;;13.50;13.00;;;;;9.03;86.83;100408.19;146636;601;45021;-66
2023/12/14 03:28:33;;;;;;;;;16.25;14.00;;;;;9.06;87.33;100399.72;146628;581;45911;-67
2023/12/14 03:31:39;;;;;;;;;17.50;14.25;;;;;9.07;86.76;100407.56;146634;576;46010;-66
2023/12/14 03:34:44;;;;;;;;;;;;;;;;;;;;;
2023/12/14 03:37:48;;;;;;;;;16.00;12.25;;;;;9.16;86.92;100426.16;146631;587;45010;-67
2023/12/14 03:40:50;;;;;;;;;15.75;14.25;;;;;9.20;86.45;100422.03;146631;586;45012;-67
2023/12/14 03:43:59;;;;;;;;;17.25;14.75;;;;;9.22;86.75;100421.28;146635;581;45020;-67
2023/12/14 03:47:02;;;;;;;;;16.25;14.00;;;;;9.22;88.05;100426.47;146630;628;45017;-68
2023/12/14 03:50:03;;;;;;;;;15.50;13.75;;;;;9.23;88.50;100433.41;146634;643;45920;-67
2023/12/14 03:53:04;;;;;;;;;12.00;12.00;;;;;9.27;87.85;100420.63;146630;575;45917;-66
2023/12/14 03:56:16;;;;;;;;;16.50;15.00;;;;;9.33;87.13;100419.25;146632;641;47010;-67
2023/12/14 03:59:25;;;;;;;;;19.50;16.50;;;;;9.39;87.67;100418.69;146631;598;45915;-67
2023/12/14 04:02:22;;;;;;;;;16.25;14.75;;;;;9.44;87.81;100419.81;146633;622;45020;-66
2023/12/14 04:05:29;;;;;;;;;17.25;15.50;;;;;9.47;87.25;100409.63;146631;657;46024;-67
2023/12/14 04:08:24;;;;;;;;;17.50;17.50;;;;;9.51;87.72;100408.06;146620;583;45020;-67
2023/12/14 04:11:28;;;;;;;;;17.25;14.75;;;;;9.54;87.08;100387.50;146608;666;46030;-68
2023/12/14 04:14:23;;;;;;;;;14.50;12.50;;;;;9.53;86.92;100394.34;146616;612;46010;-68
2023/12/14 04:17:24;;;;;;;;;17.75;16.00;;;;;9.55;86.21;100399.63;146612;573;46012;-68
2023/12/14 04:20:18;;;;;;;;;17.25;14.75;;;;;9.58;86.50;100403.25;146611;587;46014;-68
2023/12/14 04:23:46;;;;;;;;;19.25;17.00;;;;;5.51;84.79;99684.56;146611;621;46016;-67
2023/12/14 04:27:05;;;;;;;;;14.50;14.00;;;;;9.58;85.13;100407.53;146610;675;46020;-68
2023/12/14 04:29:59;;;;;;;;;17.00;14.25;;;;;9.51;86.09;100414.13;146606;631;46016;-67
2023/12/14 04:33:02;;;;;;;;;42.75;31.75;;;;;9.43;86.00;100415.41;146614;626;46010;-68
2023/12/14 04:36:00;;;;;;;;;31.25;27.50;;;;;9.36;85.71;100414.22;146612;582;46016;-67
2023/12/14 04:39:07;;;;;;;;;29.25;22.75;;;;;9.31;85.96;100402.75;146602;663;47010;-67
2023/12/14 04:42:10;;;;;;;;;25.75;22.50;;;;;9.30;85.84;100392.31;146606;598;47012;-69
2023/12/14 04:45:27;;;;;;;;;;;;;;;;;;;;;
2023/12/14 04:48:28;;;;;;;;;20.25;18.50;;;;;9.27;85.78;100395.66;146608;609;46012;-68
2023/12/14 04:51:27;;;;;;;;;49.75;41.00;;;;;9.25;86.15;100379.13;146612;569;47010;-67
2023/12/14 04:54:28;;;;;;;;;36.75;29.00;;;;;9.22;87.76;100379.91;146613;620;46012;-66
2023/12/14 04:57:32;;;;;;;;;51.00;39.00;;;;;9.25;87.46;100403.34;146612;632;47010;-67
2023/12/14 05:00:38;;;;;;;;;44.75;33.25;;;;;9.28;87.90;100396.53;146611;629;46017;-68
2023/12/14 05:04:02;;;;;;;;;31.50;26.00;;;;;9.39;93.56;100392.78;146608;656;46020;-68
2023/12/14 05:06:56;;;;;;;;;36.00;31.25;;;;;9.69;91.89;100404.69;146605;603;47916;-66
2023/12/14 05:10:04;;;;;;;;;43.75;35.00;;;;;9.83;90.73;100389.81;146601;628;47020;-66
2023/12/14 05:12:57;;;;;;;;;39.25;33.25;;;;;9.87;89.39;100403.78;146610;603;46016;-65
2023/12/14 05:16:05;;;;;;;;;47.00;38.50;;;;;9.86;88.43;100383.91;146610;572;47014;-65
2023/12/14 05:19:12;;;;;;;;;43.25;35.75;;;;;9.80;87.02;100396.56;146610;710;46016;-64
2023/12/14 05:22:09;;;;;;;;;44.75;35.25;;;;;9.77;87.49;100386.03;146611;565;46020;-66
2023/12/14 05:25:15;;;;;;;;;44.00;35.00;;;;;9.70;86.48;100382.28;146608;583;47016;-64
2023/12/14 05:28:10;;;;;;;;;47.25;37.00;;;;;9.64;86.48;100380.25;146612;586;46020;-65
2023/12/14 05:31:06;;;;;;;;;48.75;37.00;;;;;9.62;87.44;100368.03;146612;641;46016;-66
2023/12/14 05:34:20;;;;;;;;;44.75;36.50;;;;;9.56;86.46;100388.44;146609;573;46020;-64
2023/12/14 05:37:12;;;;;;;;;46.00;37.00;;;;;9.53;86.28;100385.72;146610;583;46017;-64
2023/12/14 05:40:09;;;;;;;;;42.75;33.75;;;;;9.51;86.71;100392.53;146604;646;47014;-64
2023/12/14 05:43:06;;;;;;;;;45.00;35.75;;;;;9.53;86.92;100401.25;146611;637;46016;-65
2023/12/14 05:46:22;;;;;;;;;49.25;39.00;;;;;9.48;86.69;100388.97;146607;613;46010;-66
2023/12/14 05:49:33;;;;;;;;;37.00;31.00;;;;;9.45;85.55;100399.16;146610;587;46016;-68
2023/12/14 05:52:42;;;;;;;;;38.75;30.75;;;;;5.32;85.98;99686.91;146607;621;46015;-66
2023/12/14 05:55:39;;;;;;;;;35.75;31.25;;;;;9.39;86.95;100387.62;146609;597;46016;-68
2023/12/14 05:58:37;;;;;;;;;31.75;30.25;;;;;9.34;87.28;100382.19;146611;607;46020;-68
2023/12/14 06:01:54;;;;;;;;;27.75;26.75;;;;;9.32;86.48;100395.91;146611;654;46013;-66
2023/12/14 06:04:57;;;;;;;;;34.25;28.25;;;;;9.34;87.22;100392.53;146613;640;46010;-67
2023/12/14 06:08:11;;;;;;;;;35.00;31.00;;;;;9.35;87.86;100388.28;146611;645;46012;-68
2023/12/14 06:11:25;;;;;;;;;32.00;27.75;;;;;5.39;86.80;99694.16;146605;608;47010;-67
2023/12/14 06:14:21;;;;;;;;;35.25;31.25;;;;;9.34;87.60;100391.66;146609;582;47916;-67
2023/12/14 06:17:12;;;;;;;;;30.00;24.75;;;;;9.36;87.53;100403.00;146613;566;46021;-67
2023/12/14 06:20:13;;;;;;;;;25.50;24.25;;;;;9.42;87.92;100388.66;146612;593;46016;-65
2023/12/14 06:23:25;;;;;;;;;29.00;23.50;;;;;9.47;88.81;100391.50;146614;591;47011;-67
2023/12/14 06:26:21;;;;;;;;;24.25;21.50;;;;;9.53;88.47;100389.19;146612;586;46016;-65
2023/12/14 06:29:31;;;;;;;;;45.25;37.50;;;;;9.59;88.35;100386.00;146614;622;46010;-65
2023/12/14 06:32:26;;;;;;;;;31.50;25.75;;;;;9.62;88.27;100389.63;146612;573;47012;-67
2023/12/14 06:35:27;;;;;;;;;25.25;22.00;;;;;9.66;88.87;100395.88;146610;563;46010;-67
2023/12/14 06:38:19;;;;;;;;;27.50;25.50;;;;;9.68;88.30;100386.47;146601;591;46031;-68
2023/12/14 06:41:37;;;;;;;;;33.25;28.25;;;;;5.74;87.82;99698.66;146604;624;47010;-69
2023/12/14 06:44:57;;;;;;;;;;;;;;;;;;;;;
2023/12/14 06:48:24;;;;;;;;;32.75;29.50;;;;;9.83;88.74;100397.59;146614;585;46010;-69
2023/12/14 06:51:20;;;;;;;;;26.75;25.00;;;;;9.88;89.00;100387.47;146609;571;46016;-67
2023/12/14 06:54:27;;;;;;;;;;;;;;;;;;;;;
2023/12/14 06:57:31;;;;;;;;;32.00;26.50;;;;;10.03;89.01;100400.25;146612;578;46012;-68
2023/12/14 07:00:37;;;;;;;;;45.50;35.75;;;;;10.20;89.34;100409.72;146612;615;46021;-69
2023/12/14 07:03:42;;;;;;;;;35.25;28.25;;;;;10.27;91.04;100398.84;146609;589;47012;-71
2023/12/14 07:06:44;;;;;;;;;42.50;33.50;;;;;10.36;89.33;100407.06;146613;576;46021;-68
2023/12/14 07:09:41;;;;;;;;;29.75;26.25;;;;;10.50;89.52;100410.31;146609;565;46016;-68
2023/12/14 07:12:43;;;;;;;;;25.00;22.75;;;;;10.75;90.88;100416.63;146606;565;47010;-68
2023/12/14 07:15:40;;;;;;;;;26.75;23.00;;;;;11.10;91.82;100407.81;146607;595;46033;-67
2023/12/14 07:18:35;;;;;;;;;28.00;24.25;;;;;11.39;92.53;100403.88;146612;570;47010;-68
2023/12/14 07:21:55;;;;;;;;;27.75;24.50;;;;;12.13;98.71;100409.56;146607;581;46018;-66
2023/12/14 07:24:56;;;;;;;;;31.00;26.75;;;;;13.36;100.00;100415.97;146605;672;47010;-70
2023/12/14 07:27:51;;;;;;;;;30.25;27.50;;;;;14.49;96.37;100417.88;146611;687;45914;-67
2023/12/14 07:31:02;;;;;;;;;53.25;43.25;;;;;15.46;80.76;100416.31;146611;579;47010;-68
2023/12/14 07:34:06;;;;;;;;;60.25;47.00;;;;;15.75;70.73;100418.84;146610;575;46016;-67
2023/12/14 07:37:01;;;;;;;;;61.00;49.00;;;;;15.56;67.69;100426.16;146614;569;46020;-69
2023/12/14 07:39:56;;;;;;;;;64.25;50.75;;;;;15.21;66.86;100433.94;146607;634;47014;-68
2023/12/14 07:43:02;;;;;;;;;67.25;54.00;;;;;14.82;67.68;100435.41;146608;569;47020;-67
2023/12/14 07:46:05;;;;;;;;;72.50;58.25;;;;;14.50;71.31;100438.78;146611;613;46034;-67
2023/12/14 07:49:12;;;;;;;;;66.50;51.75;;;;;10.48;71.62;99753.56;146611;596;46010;-68
2023/12/14 07:52:13;;;;;;;;;71.75;59.50;;;;;14.40;74.44;100433.25;146606;585;46017;-67
2023/12/14 07:55:18;;;;;;;;;74.00;65.50;;;;;14.46;73.75;100423.87;146611;595;46010;-67
2023/12/14 07:58:14;;;;;;;;;76.75;66.00;;;;;14.37;73.59;100423.59;146610;708;46027;-68
2023/12/14 08:01:27;;;;;;;;;82.00;75.00;;;;;10.66;73.41;99810.37;146612;563;46010;-67
2023/12/14 08:04:27;;;;;;;;;88.33;83.00;;;;;14.08;74.35;100430.50;146613;563;45912;-68
2023/12/14 08:07:28;;;;;;;;;91.00;79.67;;;;;13.90;74.96;100430.78;146617;630;47020;-67
2023/12/14 08:10:27;;;;;;;;;92.67;78.33;;;;;13.75;75.71;100438.97;146640;610;46014;-67
2023/12/14 08:13:22;;;;;;;;;88.00;77.00;;;;;13.70;77.63;100435.31;146638;574;46010;-67
2023/12/14 08:16:17;;;;;;;;;81.67;72.67;;;;;13.85;80.60;100437.56;146634;584;46016;-67
2023/12/14 08:19:13;;;;;;;;;76.67;74.00;;;;;14.17;81.84;100441.22;146642;684;45020;-67
2023/12/14 08:22:25;;;;;;;;;89.67;79.67;;;;;14.61;82.70;100449.59;146640;707;45914;-67
2023/12/14 08:25:33;;;;;;;;;63.00;48.50;;;;;11.49;78.69;99818.41;146638;570;46010;-66
2023/12/14 08:28:37;;;;;;;;;50.00;40.50;;;;;15.51;76.49;100443.44;146625;630;47012;-68
2023/12/14 08:31:45;;;;;;;;;43.75;36.75;;;;;15.85;73.10;100445.25;146635;575;45020;-67
2023/12/14 08:34:53;;;;;;;;;47.50;38.75;;;;;16.14;72.80;100440.75;146633;605;45016;-67
2023/12/14 08:37:54;;;;;;;;;56.00;45.00;;;;;16.43;70.20;100437.03;146637;666;45010;-67
2023/12/14 08:41:04;;;;;;;;;56.00;44.00;;;;;16.65;69.91;100433.16;146630;598;45016;-67
2023/12/14 08:44:05;;;;;;;;;61.00;47.25;;;;;16.84;69.34;100433.63;146630;648;46050;-69
2023/12/14 08:46:57;;;;;;;;;53.00;41.00;;;;;17.01;68.54;100434.00;146633;569;45016;-70
2023/12/14 08:49:49;;;;;;;;;46.00;37.00;;;;;17.15;68.24;100430.75;146635;605;45020;-67
2023/12/14 08:52:48;;;;;;;;;40.00;32.50;;;;;17.28;67.96;100420.53;146632;564;46914;-67
2023/12/14 08:55:44;;;;;;;;;44.25;33.75;;;;;17.41;67.49;100429.50;146628;616;46010;-68
2023/12/14 08:58:49;;;;;;;;;37.50;30.00;;;;;17.55;67.89;100421.91;146635;599;45017;-67
2023/12/14 09:01:55;;;;;;;;;29.00;27.50;;;;;17.72;68.64;100424.81;146634;571;45020;-67
2023/12/14 09:05:32;;;;;;;;;;;;;;;;;;;;;
2023/12/14 09:08:29;;;;;;;;;30.00;25.25;;;;;18.22;68.29;100417.84;146623;582;47010;-69
2023/12/14 09:11:25;;;;;;;;;36.50;30.00;;;;;18.42;66.03;100409.38;146610;614;47014;-67
2023/12/14 09:14:27;;;;;;;;;26.50;24.00;;;;;18.58;66.34;100407.84;146605;583;46039;-67
2023/12/14 09:17:25;;;;;;;;;47.00;37.00;;;;;18.71;67.03;100396.63;146610;583;46012;-68
2023/12/14 09:20:35;;;;;;;;;46.75;38.25;;;;;18.89;66.95;100385.50;146608;701;46020;-67
2023/12/14 09:23:30;;;;;;;;;50.25;40.25;;;;;19.10;66.71;100379.63;146606;565;46016;-67
2023/12/14 09:26:28;;;;;;;;;47.25;38.25;;;;;19.28;66.93;100377.19;146613;641;47010;-69
2023/12/14 09:29:29;;;;;;;;;50.00;41.25;;;;;19.42;63.99;100379.06;146606;578;46017;-67
2023/12/14 09:32:32;;;;;;;;;53.75;43.50;;;;;19.50;63.28;100375.66;146609;584;47020;-69
2023/12/14 09:35:41;;;;;;;;;66.75;55.00;;;;;19.53;63.69;100374.78;146605;570;46012;-67
2023/12/14 09:38:36;;;;;;;;;65.50;51.00;;;;;19.56;64.37;100377.44;146613;581;46021;-68
2023/12/14 09:41:31;;;;;;;;;66.00;55.25;;;;;19.63;63.96;100371.38;146605;565;46016;-67
2023/12/14 09:44:36;;;;;;;;;50.00;40.50;;;;;19.73;63.13;100365.34;146605;575;47010;-68
2023/12/14 09:47:35;;;;;;;;;43.00;36.00;;;;;19.81;62.91;100373.28;146605;651;47016;-68
2023/12/14 09:50:35;;;;;;;;;44.25;36.75;;;;;19.93;62.49;100369.88;146607;615;46011;-68
2023/12/14 09:53:30;;;;;;;;;51.25;39.50;;;;;20.06;60.43;100372.63;146604;625;47012;-68
2023/12/14 09:56:56;;;;;;;;;50.50;40.25;;;;;20.22;62.92;100370.09;146612;572;47020;-68
2023/12/14 10:00:06;;;;;;;;;51.75;40.50;;;;;20.35;61.71;100369.28;146609;588;46032;-68
2023/12/14 10:03:06;;;;;;;;;53.00;43.50;;;;;20.46;59.86;100362.31;146611;602;47010;-68
2023/12/14 10:06:21;;;;;;;;;56.25;44.25;;;;;20.57;58.29;100354.50;146607;593;46016;-68
2023/12/14 10:09:34;;;;;;;;;54.75;44.25;;;;;20.61;60.32;100347.50;146611;613;47010;-67
2023/12/14 10:12:32;;;;;;;;;57.50;45.50;;;;;20.63;60.58;100341.38;146605;578;47012;-69
2023/12/14 10:15:33;;;;;;;;;59.75;46.25;;;;;20.65;60.19;100336.97;146604;590;47049;-68
2023/12/14 10:18:34;;;;;;;;;55.75;45.00;;;;;20.65;61.38;100330.81;146603;564;47014;-68
2023/12/14 10:21:35;;;;;;;;;55.75;43.50;;;;;20.70;58.10;100326.47;146611;715;46020;-67
2023/12/14 10:24:28;;;;;;;;;52.00;42.25;;;;;20.75;60.37;100327.38;146603;749;47014;-67
2023/12/14 10:27:55;;;;;;;;;46.00;38.50;;;;;20.83;61.38;100327.38;146609;596;46021;-67
2023/12/14 10:31:18;;;;;;;;;50.50;40.75;;;;;20.86;59.00;100309.81;146611;604;46012;-68
2023/12/14 10:34:15;;;;;;;;;49.00;40.00;;;;;20.88;57.22;100308.06;146608;610;47021;-66
2023/12/14 10:37:11;;;;;;;;;46.00;38.00;;;;;20.84;58.82;100300.16;146611;593;46034;-68
2023/12/14 10:40:10;;;;;;;;;46.25;37.00;;;;;20.86;57.94;100293.12;146603;619;47020;-68
2023/12/14 10:43:10;;;;;;;;;47.25;38.25;;;;;20.94;59.43;100291.41;146606;635;46037;-69
2023/12/14 10:46:23;;;;;;;;;45.50;37.50;;;;;21.08;60.17;100291.41;146605;601;47010;-67
2023/12/14 10:49:49;;;;;;;;;48.50;39.50;;;;;18.55;61.06;99825.81;146606;629;46017;-68
2023/12/14 10:52:48;;;;;;;;;44.50;35.25;;;;;21.34;59.92;100273.88;146610;566;47020;-68
2023/12/14 10:56:00;;;;;;;;;46.75;37.75;;;;;21.51;59.74;100267.75;146609;654;46016;-68
2023/12/14 10:59:17;;;;;;;;;48.75;40.00;;;;;18.48;60.47;99716.41;146609;564;47010;-68
2023/12/14 11:02:28;;;;;;;;;52.25;40.75;;;;;21.77;57.77;100260.66;146608;596;46016;-68
2023/12/14 11:05:32;;;;;;;;;48.75;40.25;;;;;21.86;57.93;100257.13;146610;617;46020;-68
2023/12/14 11:09:07;;;;;;;;;;;;;;;;;;;;;
2023/12/14 11:12:15;;;;;;;;;40.75;33.25;;;;;22.05;58.51;100265.88;146614;626;46021;-68
2023/12/14 11:15:12;;;;;;;;;41.50;33.00;;;;;22.09;55.31;100265.00;146607;579;47012;-67
2023/12/14 11:18:36;;;;;;;;;31.75;26.75;;;;;19.40;58.77;99805.91;146603;641;47010;-67
2023/12/14 11:21:41;;;;;;;;;40.00;32.75;;;;;22.06;56.50;100267.66;146611;638;46016;-68
2023/12/14 11:24:35;;;;;;;;;39.00;29.50;;;;;22.07;57.83;100262.34;146608;569;47014;-68
2023/12/14 11:27:52;;;;;;;;;33.00;28.00;;;;;22.14;58.83;100265.84;146608;636;47012;-67
2023/12/14 11:30:45;;;;;;;;;43.25;32.75;;;;;22.16;57.60;100257.94;146606;563;46010;-67
2023/12/14 11:33:55;;;;;;;;;29.00;27.25;;;;;22.12;57.11;100259.72;146611;631;46017;-67
2023/12/14 11:36:52;;;;;;;;;35.25;29.75;;;;;22.17;55.60;100249.16;146614;565;46020;-66
2023/12/14 11:39:47;;;;;;;;;41.25;32.25;;;;;22.25;58.15;100250.87;146605;721;47012;-67
2023/12/14 11:42:46;;;;;;;;;24.75;22.50;;;;;22.34;50.69;100250.84;146615;616;46014;-67
2023/12/14 11:45:45;;;;;;;;;20.50;17.00;;;;;22.41;46.98;100243.78;146608;652;47033;-66
2023/12/14 11:49:04;;;;;;;;;27.25;22.50;;;;;19.42;52.76;99714.78;146603;587;47020;-68
2023/12/14 11:52:13;;;;;;;;;18.75;14.25;;;;;22.50;46.75;100235.78;146611;639;46012;-68
2023/12/14 11:55:06;;;;;;;;;14.75;11.50;;;;;22.54;46.75;100232.25;146606;570;47011;-67
2023/12/14 11:58:07;;;;;;;;;13.00;11.67;;;;;22.60;46.17;100232.22;146609;592;47016;-68
2023/12/14 12:01:28;;;;;;;;;13.25;11.00;;;;;19.47;50.47;99692.00;146613;570;46020;-67
2023/12/14 12:04:22;;;;;;;;;17.67;13.67;;;;;22.79;46.14;100232.09;146605;579;47012;-67
2023/12/14 12:07:34;;;;;;;;;18.50;16.00;;;;;20.20;48.30;99758.50;146606;629;46020;-68
2023/12/14 12:10:35;;;;;;;;;16.67;13.00;;;;;23.02;45.10;100231.97;146623;586;46012;-67
2023/12/14 12:13:33;;;;;;;;;18.25;16.75;;;;;23.16;47.46;100227.44;146625;572;45020;-67
2023/12/14 12:16:41;;;;;;;;;18.00;15.50;;;;;23.29;48.81;100226.44;146625;606;46012;-68
2023/12/14 12:19:38;;;;;;;;;15.00;14.00;;;;;23.54;45.23;100214.78;146627;582;46010;-68
2023/12/14 12:22:47;;;;;;;;;17.50;15.75;;;;;23.69;47.40;100206.72;146623;654;45912;-67
2023/12/14 12:25:48;;;;;;;;;17.33;13.00;;;;;23.76;43.59;100211.03;146628;641;46011;-66
2023/12/14 12:28:41;;;;;;;;;13.33;11.00;;;;;23.80;43.03;100201.28;146627;599;46012;-67
2023/12/14 12:31:39;;;;;;;;;11.67;10.00;;;;;23.99;42.41;100205.50;146625;566;46010;-68
2023/12/14 12:34:52;;;;;;;;;11.00;9.00;;;;;24.16;41.66;100206.16;146627;592;46012;-69
2023/12/14 12:37:53;;;;;;;;;17.00;15.75;;;;;24.25;41.48;100205.16;146626;574;46010;-66
2023/12/14 12:40:55;;;;;;;;;13.33;13.33;;;;;24.32;44.16;100211.25;146625;597;45017;-69
2023/12/14 12:44:12;;;;;;;;;11.67;11.00;;;;;24.46;45.33;100205.81;146629;598;46008;-68
2023/12/14 12:47:05;;;;;;;;;8.67;8.33;;;;;24.68;43.85;100198.44;146624;576;46015;-68
2023/12/14 12:50:00;;;;;;;;;9.00;6.00;;;;;24.81;41.65;100197.34;146626;668;45020;-68
2023/12/14 12:52:57;;;;;;;;;17.67;13.67;;;;;24.85;43.79;100199.03;146626;614;46012;-69
2023/12/14 12:55:54;;;;;;;;;9.67;8.00;;;;;24.85;42.18;100202.53;146629;619;46011;-67
2023/12/14 12:59:05;;;;;;;;;13.67;10.67;;;;;24.80;41.65;100193.81;146627;603;46912;-67
2023/12/14 13:02:01;;;;;;;;;6.67;6.67;;;;;24.70;42.44;100189.53;146632;674;46010;-66
2023/12/14 13:04:57;;;;;;;;;9.00;5.00;;;;;24.57;40.53;100182.66;146621;571;46016;-67
2023/12/14 13:07:59;;;;;;;;;10.00;10.00;;;;;24.46;41.02;100184.62;146626;564;45913;-67
2023/12/14 13:10:59;;;;;;;;;20.50;18.25;;;;;24.31;40.76;100186.53;146598;581;47013;-69
2023/12/14 13:13:53;;;;;;;;;19.50;18.00;;;;;24.18;41.51;100184.94;146602;610;46010;-68
2023/12/14 13:16:59;;;;;;;;;21.50;17.00;;;;;24.17;41.93;100188.47;146600;713;47017;-67
2023/12/14 13:20:01;;;;;;;;;6.67;6.67;;;;;24.18;41.38;100183.16;146606;575;47010;-67
2023/12/14 13:23:06;;;;;;;;;7.67;7.67;;;;;24.28;44.64;100191.88;146602;571;47012;-69
2023/12/14 13:26:08;;;;;;;;;5.67;5.67;;;;;24.38;44.00;100187.31;146607;575;46047;-69
2023/12/14 13:29:09;;;;;;;;;5.00;5.00;;;;;24.49;40.26;100181.91;146598;586;47016;-68
2023/12/14 13:32:08;;;;;;;;;15.67;10.33;;;;;24.43;44.97;100183.75;146606;574;46021;-67
2023/12/14 13:35:11;;;;;;;;;4.67;4.00;;;;;24.36;43.10;100192.66;146601;601;46016;-68
2023/12/14 13:38:11;;;;;;;;;6.67;5.67;;;;;24.34;43.37;100197.09;146604;640;47020;-67
2023/12/14 13:41:10;;;;;;;;;23.50;22.75;;;;;24.22;42.01;100188.44;146596;594;47016;-66
2023/12/14 13:44:16;;;;;;;;;15.50;14.00;;;;;24.08;42.28;100194.78;146604;582;47014;-66
2023/12/14 13:47:23;;;;;;;;;6.67;6.67;;;;;23.98;43.79;100204.59;146607;576;47012;-67
2023/12/14 13:50:19;;;;;;;;;13.25;12.75;;;;;24.08;43.86;100213.31;146601;585;46020;-68
2023/12/14 13:53:29;;;;;;;;;5.67;5.67;;;;;24.14;44.67;100207.97;146598;595;47916;-67
2023/12/14 13:56:31;;;;;;;;;;;;;;;;;;;;;
2023/12/14 13:59:47;;;;;;;;;15.75;14.25;;;;;24.09;42.27;100222.16;146597;592;46913;-67
2023/12/14 14:02:47;;;;;;;;;35.00;29.75;;;;;24.06;43.88;100220.41;146605;588;46014;-68
2023/12/14 14:05:50;;;;;;;;;13.67;13.67;;;;;23.98;42.53;100228.41;146600;629;46016;-68
2023/12/14 14:08:42;;;;;;;;;24.25;20.25;;;;;23.86;43.58;100235.62;146601;575;47021;-67
2023/12/14 14:11:37;;;;;;;;;8.33;8.00;;;;;23.75;43.11;100230.47;146601;646;46016;-69
2023/12/14 14:14:38;;;;;;;;;15.25;14.75;;;;;23.65;41.67;100231.44;146605;589;46020;-68